sensor_id;sensor_type;location;lat;lon;timestamp;P1;durP1;ratioP1;P2;durP2;ratioP2
25511;SDS011;13414;44.534;18.700;2022-11-15T00:00:46;197.65;;;117.63;;
25511;SDS011;13414;44.534;18.700;2022-11-15T00:03:34;204.25;;;116.88;;
25511;SDS011;13414;44.534;18.700;2022-11-15T00:06:20;210.18;;;124.68;;
25511;SDS011;13414;44.534;18.700;2022-11-15T00:11:52;211.63;;;126.22;;
25511;SDS011;13414;44.534;18.700;2022-11-15T00:14:37;217.25;;;128.45;;
25511;SDS011;13414;44.534;18.700;2022-11-15T00:17:23;214.63;;;125.38;;
25511;SDS011;13414;44.534;18.700;2022-11-15T00:20:11;212.63;;;128.27;;
25511;SDS011;13414;44.534;18.700;2022-11-15T00:22:57;208.95;;;127.70;;
25511;SDS011;13414;44.534;18.700;2022-11-15T00:25:43;219.60;;;130.15;;
25511;SDS011;13414;44.534;18.700;2022-11-15T00:28:29;217.30;;;128.80;;
25511;SDS011;13414;44.534;18.700;2022-11-15T00:31:15;231.60;;;132.73;;
25511;SDS011;13414;44.534;18.700;2022-11-15T00:34:01;238.85;;;139.75;;
25511;SDS011;13414;44.534;18.700;2022-11-15T00:36:48;253.10;;;150.43;;
25511;SDS011;13414;44.534;18.700;2022-11-15T00:39:34;255.93;;;147.98;;
25511;SDS011;13414;44.534;18.700;2022-11-15T00:42:20;246.52;;;145.60;;
25511;SDS011;13414;44.534;18.700;2022-11-15T00:45:06;229.85;;;135.02;;
25511;SDS011;13414;44.534;18.700;2022-11-15T00:47:52;240.00;;;141.60;;
25511;SDS011;13414;44.534;18.700;2022-11-15T00:50:38;213.90;;;124.78;;
25511;SDS011;13414;44.534;18.700;2022-11-15T00:53:26;207.48;;;125.63;;
25511;SDS011;13414;44.534;18.700;2022-11-15T00:56:12;209.85;;;125.53;;
25511;SDS011;13414;44.534;18.700;2022-11-15T00:58:58;216.82;;;128.50;;
25511;SDS011;13414;44.534;18.700;2022-11-15T01:01:44;210.32;;;122.90;;
25511;SDS011;13414;44.534;18.700;2022-11-15T01:04:30;211.02;;;126.38;;
25511;SDS011;13414;44.534;18.700;2022-11-15T01:07:16;204.77;;;123.05;;
25511;SDS011;13414;44.534;18.700;2022-11-15T01:10:03;205.57;;;125.60;;
25511;SDS011;13414;44.534;18.700;2022-11-15T01:12:50;210.00;;;126.07;;
25511;SDS011;13414;44.534;18.700;2022-11-15T01:15:38;207.07;;;126.25;;
25511;SDS011;13414;44.534;18.700;2022-11-15T01:18:25;216.07;;;126.53;;
25511;SDS011;13414;44.534;18.700;2022-11-15T01:21:13;205.07;;;125.57;;
25511;SDS011;13414;44.534;18.700;2022-11-15T01:24:00;207.27;;;126.20;;
25511;SDS011;13414;44.534;18.700;2022-11-15T01:26:47;214.77;;;127.05;;
25511;SDS011;13414;44.534;18.700;2022-11-15T01:29:33;213.93;;;126.50;;
25511;SDS011;13414;44.534;18.700;2022-11-15T01:32:19;213.70;;;122.03;;
25511;SDS011;13414;44.534;18.700;2022-11-15T01:35:05;215.13;;;121.22;;
25511;SDS011;13414;44.534;18.700;2022-11-15T01:37:51;207.57;;;119.15;;
25511;SDS011;13414;44.534;18.700;2022-11-15T01:40:36;202.13;;;119.32;;
25511;SDS011;13414;44.534;18.700;2022-11-15T01:43:24;206.48;;;119.45;;
25511;SDS011;13414;44.534;18.700;2022-11-15T01:46:16;204.65;;;118.00;;
25511;SDS011;13414;44.534;18.700;2022-11-15T01:49:11;200.93;;;115.70;;
25511;SDS011;13414;44.534;18.700;2022-11-15T01:52:01;192.75;;;110.82;;
25511;SDS011;13414;44.534;18.700;2022-11-15T01:54:50;187.73;;;104.63;;
25511;SDS011;13414;44.534;18.700;2022-11-15T01:57:39;186.07;;;104.30;;
25511;SDS011;13414;44.534;18.700;2022-11-15T02:00:29;195.50;;;106.63;;
25511;SDS011;13414;44.534;18.700;2022-11-15T02:03:17;191.18;;;103.70;;
25511;SDS011;13414;44.534;18.700;2022-11-15T02:06:03;185.82;;;102.28;;
25511;SDS011;13414;44.534;18.700;2022-11-15T02:08:50;197.52;;;102.40;;
25511;SDS011;13414;44.534;18.700;2022-11-15T02:11:36;204.80;;;101.90;;
25511;SDS011;13414;44.534;18.700;2022-11-15T02:14:22;202.90;;;100.70;;
25511;SDS011;13414;44.534;18.700;2022-11-15T02:17:24;196.10;;;100.65;;
25511;SDS011;13414;44.534;18.700;2022-11-15T02:23:49;216.00;;;103.07;;
25511;SDS011;13414;44.534;18.700;2022-11-15T02:30:26;208.85;;;101.88;;
25511;SDS011;13414;44.534;18.700;2022-11-15T02:33:25;195.48;;;103.20;;
25511;SDS011;13414;44.534;18.700;2022-11-15T02:36:18;205.80;;;106.55;;
25511;SDS011;13414;44.534;18.700;2022-11-15T02:39:13;210.50;;;106.05;;
25511;SDS011;13414;44.534;18.700;2022-11-15T02:42:05;197.07;;;103.88;;
25511;SDS011;13414;44.534;18.700;2022-11-15T02:45:16;207.63;;;112.72;;
25511;SDS011;13414;44.534;18.700;2022-11-15T02:48:07;214.23;;;113.25;;
25511;SDS011;13414;44.534;18.700;2022-11-15T02:50:54;223.43;;;122.28;;
25511;SDS011;13414;44.534;18.700;2022-11-15T02:53:40;236.43;;;123.28;;
25511;SDS011;13414;44.534;18.700;2022-11-15T02:56:26;220.93;;;120.85;;
25511;SDS011;13414;44.534;18.700;2022-11-15T02:59:24;226.38;;;120.97;;
25511;SDS011;13414;44.534;18.700;2022-11-15T03:02:55;227.20;;;122.85;;
25511;SDS011;13414;44.534;18.700;2022-11-15T03:05:51;213.15;;;114.20;;
25511;SDS011;13414;44.534;18.700;2022-11-15T03:08:47;213.07;;;114.30;;
25511;SDS011;13414;44.534;18.700;2022-11-15T03:11:40;217.40;;;112.38;;
25511;SDS011;13414;44.534;18.700;2022-11-15T03:14:32;221.50;;;115.90;;
25511;SDS011;13414;44.534;18.700;2022-11-15T03:17:22;216.85;;;118.93;;
25511;SDS011;13414;44.534;18.700;2022-11-15T03:20:12;220.35;;;121.93;;
25511;SDS011;13414;44.534;18.700;2022-11-15T03:23:03;226.70;;;124.75;;
25511;SDS011;13414;44.534;18.700;2022-11-15T03:25:53;226.48;;;125.43;;
25511;SDS011;13414;44.534;18.700;2022-11-15T03:28:42;220.05;;;124.07;;
25511;SDS011;13414;44.534;18.700;2022-11-15T03:31:32;220.57;;;125.38;;
25511;SDS011;13414;44.534;18.700;2022-11-15T03:34:34;222.63;;;126.22;;
25511;SDS011;13414;44.534;18.700;2022-11-15T03:37:24;217.45;;;123.90;;
25511;SDS011;13414;44.534;18.700;2022-11-15T03:40:18;223.13;;;127.05;;
25511;SDS011;13414;44.534;18.700;2022-11-15T03:43:12;227.27;;;129.45;;
25511;SDS011;13414;44.534;18.700;2022-11-15T03:46:06;225.75;;;129.10;;
25511;SDS011;13414;44.534;18.700;2022-11-15T03:48:56;227.55;;;129.52;;
25511;SDS011;13414;44.534;18.700;2022-11-15T03:51:51;230.27;;;130.35;;
25511;SDS011;13414;44.534;18.700;2022-11-15T03:54:37;225.10;;;125.32;;
25511;SDS011;13414;44.534;18.700;2022-11-15T03:57:35;224.65;;;129.77;;
25511;SDS011;13414;44.534;18.700;2022-11-15T04:00:21;229.32;;;129.00;;
25511;SDS011;13414;44.534;18.700;2022-11-15T04:03:07;225.90;;;128.07;;
25511;SDS011;13414;44.534;18.700;2022-11-15T04:05:52;228.43;;;122.90;;
25511;SDS011;13414;44.534;18.700;2022-11-15T04:08:38;229.35;;;118.75;;
25511;SDS011;13414;44.534;18.700;2022-11-15T04:11:24;238.07;;;116.72;;
25511;SDS011;13414;44.534;18.700;2022-11-15T04:14:12;217.93;;;115.35;;
25511;SDS011;13414;44.534;18.700;2022-11-15T04:16:58;226.30;;;115.70;;
25511;SDS011;13414;44.534;18.700;2022-11-15T04:19:44;223.25;;;111.47;;
25511;SDS011;13414;44.534;18.700;2022-11-15T04:22:54;211.27;;;108.10;;
25511;SDS011;13414;44.534;18.700;2022-11-15T04:25:59;211.00;;;109.78;;
25511;SDS011;13414;44.534;18.700;2022-11-15T04:28:46;218.57;;;110.32;;
25511;SDS011;13414;44.534;18.700;2022-11-15T04:31:47;215.63;;;109.57;;
25511;SDS011;13414;44.534;18.700;2022-11-15T04:34:33;211.57;;;109.40;;
25511;SDS011;13414;44.534;18.700;2022-11-15T04:37:19;219.18;;;113.22;;
25511;SDS011;13414;44.534;18.700;2022-11-15T04:40:04;198.93;;;107.10;;
25511;SDS011;13414;44.534;18.700;2022-11-15T04:42:51;204.57;;;107.60;;
25511;SDS011;13414;44.534;18.700;2022-11-15T04:45:36;208.63;;;108.68;;
25511;SDS011;13414;44.534;18.700;2022-11-15T04:48:24;208.02;;;105.75;;
25511;SDS011;13414;44.534;18.700;2022-11-15T04:51:10;196.50;;;103.93;;
25511;SDS011;13414;44.534;18.700;2022-11-15T04:53:55;211.13;;;104.80;;
25511;SDS011;13414;44.534;18.700;2022-11-15T04:56:41;203.63;;;103.35;;
25511;SDS011;13414;44.534;18.700;2022-11-15T04:59:27;206.82;;;102.45;;
25511;SDS011;13414;44.534;18.700;2022-11-15T05:02:13;215.77;;;106.70;;
25511;SDS011;13414;44.534;18.700;2022-11-15T05:05:02;244.43;;;116.90;;
25511;SDS011;13414;44.534;18.700;2022-11-15T05:07:48;271.10;;;117.07;;
25511;SDS011;13414;44.534;18.700;2022-11-15T05:10:33;209.73;;;110.30;;
25511;SDS011;13414;44.534;18.700;2022-11-15T05:13:19;211.65;;;110.38;;
25511;SDS011;13414;44.534;18.700;2022-11-15T05:16:05;220.68;;;113.95;;
25511;SDS011;13414;44.534;18.700;2022-11-15T05:21:39;213.65;;;116.20;;
25511;SDS011;13414;44.534;18.700;2022-11-15T05:24:24;214.85;;;116.50;;
25511;SDS011;13414;44.534;18.700;2022-11-15T05:27:10;212.23;;;113.57;;
25511;SDS011;13414;44.534;18.700;2022-11-15T05:29:56;211.00;;;113.07;;
25511;SDS011;13414;44.534;18.700;2022-11-15T05:32:42;213.68;;;115.30;;
25511;SDS011;13414;44.534;18.700;2022-11-15T05:35:30;208.43;;;106.00;;
25511;SDS011;13414;44.534;18.700;2022-11-15T05:38:21;212.20;;;105.47;;
25511;SDS011;13414;44.534;18.700;2022-11-15T05:41:08;200.63;;;100.47;;
25511;SDS011;13414;44.534;18.700;2022-11-15T05:43:55;214.30;;;108.63;;
25511;SDS011;13414;44.534;18.700;2022-11-15T05:46:42;207.15;;;104.57;;
25511;SDS011;13414;44.534;18.700;2022-11-15T05:49:29;219.95;;;113.07;;
25511;SDS011;13414;44.534;18.700;2022-11-15T05:52:22;195.80;;;104.50;;
25511;SDS011;13414;44.534;18.700;2022-11-15T05:55:12;200.32;;;102.47;;
25511;SDS011;13414;44.534;18.700;2022-11-15T05:57:59;205.80;;;105.85;;
25511;SDS011;13414;44.534;18.700;2022-11-15T06:00:45;218.48;;;112.22;;
25511;SDS011;13414;44.534;18.700;2022-11-15T06:06:17;274.05;;;125.00;;
25511;SDS011;13414;44.534;18.700;2022-11-15T06:09:03;250.23;;;121.60;;
25511;SDS011;13414;44.534;18.700;2022-11-15T06:11:50;295.50;;;132.13;;
25511;SDS011;13414;44.534;18.700;2022-11-15T06:14:36;237.40;;;124.10;;
25511;SDS011;13414;44.534;18.700;2022-11-15T06:20:08;359.58;;;139.93;;
25511;SDS011;13414;44.534;18.700;2022-11-15T06:22:56;314.90;;;129.70;;
25511;SDS011;13414;44.534;18.700;2022-11-15T06:25:43;281.10;;;123.38;;
25511;SDS011;13414;44.534;18.700;2022-11-15T06:28:31;234.60;;;124.70;;
25511;SDS011;13414;44.534;18.700;2022-11-15T06:31:17;289.77;;;129.45;;
25511;SDS011;13414;44.534;18.700;2022-11-15T06:34:03;258.88;;;131.90;;
25511;SDS011;13414;44.534;18.700;2022-11-15T06:36:49;244.95;;;129.27;;
25511;SDS011;13414;44.534;18.700;2022-11-15T06:39:35;254.30;;;127.68;;
25511;SDS011;13414;44.534;18.700;2022-11-15T06:42:20;280.85;;;132.65;;
25511;SDS011;13414;44.534;18.700;2022-11-15T06:45:09;289.63;;;137.20;;
25511;SDS011;13414;44.534;18.700;2022-11-15T06:47:55;295.00;;;130.80;;
25511;SDS011;13414;44.534;18.700;2022-11-15T06:50:42;265.60;;;126.72;;
25511;SDS011;13414;44.534;18.700;2022-11-15T06:53:29;269.02;;;115.85;;
25511;SDS011;13414;44.534;18.700;2022-11-15T06:56:15;299.95;;;123.18;;
25511;SDS011;13414;44.534;18.700;2022-11-15T06:59:01;294.40;;;123.80;;
25511;SDS011;13414;44.534;18.700;2022-11-15T07:01:50;242.55;;;119.50;;
25511;SDS011;13414;44.534;18.700;2022-11-15T07:04:36;405.10;;;132.52;;
25511;SDS011;13414;44.534;18.700;2022-11-15T07:07:22;239.82;;;115.30;;
25511;SDS011;13414;44.534;18.700;2022-11-15T07:10:08;246.60;;;123.93;;
25511;SDS011;13414;44.534;18.700;2022-11-15T07:12:55;254.23;;;122.80;;
25511;SDS011;13414;44.534;18.700;2022-11-15T07:15:41;258.80;;;114.00;;
25511;SDS011;13414;44.534;18.700;2022-11-15T07:18:29;244.85;;;118.97;;
25511;SDS011;13414;44.534;18.700;2022-11-15T07:21:15;267.40;;;122.43;;
25511;SDS011;13414;44.534;18.700;2022-11-15T07:24:01;306.27;;;118.53;;
25511;SDS011;13414;44.534;18.700;2022-11-15T07:26:47;255.30;;;121.60;;
25511;SDS011;13414;44.534;18.700;2022-11-15T07:29:34;265.88;;;124.80;;
25511;SDS011;13414;44.534;18.700;2022-11-15T07:32:20;233.75;;;119.68;;
25511;SDS011;13414;44.534;18.700;2022-11-15T07:35:08;237.95;;;114.55;;
25511;SDS011;13414;44.534;18.700;2022-11-15T07:37:54;194.48;;;106.70;;
25511;SDS011;13414;44.534;18.700;2022-11-15T07:40:41;206.73;;;112.47;;
25511;SDS011;13414;44.534;18.700;2022-11-15T07:43:27;226.80;;;110.60;;
25511;SDS011;13414;44.534;18.700;2022-11-15T07:49:08;185.65;;;107.28;;
25511;SDS011;13414;44.534;18.700;2022-11-15T07:51:58;183.32;;;108.38;;
25511;SDS011;13414;44.534;18.700;2022-11-15T07:54:44;181.32;;;106.68;;
25511;SDS011;13414;44.534;18.700;2022-11-15T07:57:29;181.48;;;105.15;;
25511;SDS011;13414;44.534;18.700;2022-11-15T08:00:16;174.18;;;102.72;;
25511;SDS011;13414;44.534;18.700;2022-11-15T08:03:04;174.75;;;100.68;;
25511;SDS011;13414;44.534;18.700;2022-11-15T08:05:52;183.73;;;105.03;;
25511;SDS011;13414;44.534;18.700;2022-11-15T08:08:39;191.00;;;104.28;;
25511;SDS011;13414;44.534;18.700;2022-11-15T08:11:25;183.02;;;106.00;;
25511;SDS011;13414;44.534;18.700;2022-11-15T08:14:11;177.05;;;103.97;;
25511;SDS011;13414;44.534;18.700;2022-11-15T08:16:57;173.23;;;105.00;;
25511;SDS011;13414;44.534;18.700;2022-11-15T08:19:43;185.40;;;106.93;;
25511;SDS011;13414;44.534;18.700;2022-11-15T08:22:29;182.10;;;106.03;;
25511;SDS011;13414;44.534;18.700;2022-11-15T08:25:18;182.52;;;105.53;;
25511;SDS011;13414;44.534;18.700;2022-11-15T08:28:04;178.63;;;105.93;;
25511;SDS011;13414;44.534;18.700;2022-11-15T08:30:51;173.77;;;102.80;;
25511;SDS011;13414;44.534;18.700;2022-11-15T08:33:37;174.65;;;102.93;;
25511;SDS011;13414;44.534;18.700;2022-11-15T08:36:22;170.93;;;106.40;;
25511;SDS011;13414;44.534;18.700;2022-11-15T08:39:10;162.40;;;98.05;;
25511;SDS011;13414;44.534;18.700;2022-11-15T08:41:58;141.43;;;92.78;;
25511;SDS011;13414;44.534;18.700;2022-11-15T08:44:44;150.50;;;96.47;;
25511;SDS011;13414;44.534;18.700;2022-11-15T08:47:30;151.50;;;97.13;;
25511;SDS011;13414;44.534;18.700;2022-11-15T08:50:16;146.60;;;94.63;;
25511;SDS011;13414;44.534;18.700;2022-11-15T08:53:05;153.65;;;100.72;;
25511;SDS011;13414;44.534;18.700;2022-11-15T08:55:52;160.75;;;99.60;;
25511;SDS011;13414;44.534;18.700;2022-11-15T08:58:40;162.90;;;102.28;;
25511;SDS011;13414;44.534;18.700;2022-11-15T09:01:26;158.98;;;98.13;;
25511;SDS011;13414;44.534;18.700;2022-11-15T09:04:12;154.75;;;100.05;;
25511;SDS011;13414;44.534;18.700;2022-11-15T09:06:58;153.10;;;99.30;;
25511;SDS011;13414;44.534;18.700;2022-11-15T09:09:44;144.45;;;97.55;;
25511;SDS011;13414;44.534;18.700;2022-11-15T09:15:17;144.27;;;88.53;;
25511;SDS011;13414;44.534;18.700;2022-11-15T09:18:04;134.65;;;90.18;;
25511;SDS011;13414;44.534;18.700;2022-11-15T09:20:49;140.63;;;99.47;;
25511;SDS011;13414;44.534;18.700;2022-11-15T09:23:35;150.05;;;99.20;;
25511;SDS011;13414;44.534;18.700;2022-11-15T09:26:21;154.50;;;100.35;;
25511;SDS011;13414;44.534;18.700;2022-11-15T09:29:07;152.70;;;99.60;;
25511;SDS011;13414;44.534;18.700;2022-11-15T09:31:54;150.55;;;101.85;;
25511;SDS011;13414;44.534;18.700;2022-11-15T09:34:40;149.73;;;101.78;;
25511;SDS011;13414;44.534;18.700;2022-11-15T09:37:26;162.40;;;103.07;;
25511;SDS011;13414;44.534;18.700;2022-11-15T09:40:12;154.98;;;102.00;;
25511;SDS011;13414;44.534;18.700;2022-11-15T09:43:06;148.05;;;99.22;;
25511;SDS011;13414;44.534;18.700;2022-11-15T09:46:09;165.30;;;105.18;;
25511;SDS011;13414;44.534;18.700;2022-11-15T09:49:21;159.32;;;103.78;;
25511;SDS011;13414;44.534;18.700;2022-11-15T09:52:12;171.70;;;112.55;;
25511;SDS011;13414;44.534;18.700;2022-11-15T09:54:41;158.00;;;106.88;;
25511;SDS011;13414;44.534;18.700;2022-11-15T09:57:13;162.85;;;110.07;;
25511;SDS011;13414;44.534;18.700;2022-11-15T09:59:48;157.73;;;105.43;;
25511;SDS011;13414;44.534;18.700;2022-11-15T10:02:41;144.73;;;99.40;;
25511;SDS011;13414;44.534;18.700;2022-11-15T10:05:22;153.90;;;102.60;;
25511;SDS011;13414;44.534;18.700;2022-11-15T10:07:51;144.93;;;100.15;;
25511;SDS011;13414;44.534;18.700;2022-11-15T10:10:25;147.38;;;98.35;;
25511;SDS011;13414;44.534;18.700;2022-11-15T10:12:57;142.75;;;98.95;;
25511;SDS011;13414;44.534;18.700;2022-11-15T10:15:25;138.65;;;93.28;;
25511;SDS011;13414;44.534;18.700;2022-11-15T10:18:00;140.30;;;94.30;;
25511;SDS011;13414;44.534;18.700;2022-11-15T10:20:44;140.38;;;94.85;;
25511;SDS011;13414;44.534;18.700;2022-11-15T10:23:15;131.82;;;93.70;;
25511;SDS011;13414;44.534;18.700;2022-11-15T10:25:45;131.40;;;89.07;;
25511;SDS011;13414;44.534;18.700;2022-11-15T10:28:15;121.10;;;82.63;;
25511;SDS011;13414;44.534;18.700;2022-11-15T10:30:44;112.50;;;80.40;;
25511;SDS011;13414;44.534;18.700;2022-11-15T10:33:16;113.47;;;80.00;;
25511;SDS011;13414;44.534;18.700;2022-11-15T10:38:52;114.22;;;76.75;;
25511;SDS011;13414;44.534;18.700;2022-11-15T10:41:22;107.95;;;74.63;;
25511;SDS011;13414;44.534;18.700;2022-11-15T10:44:03;104.53;;;75.07;;
25511;SDS011;13414;44.534;18.700;2022-11-15T10:46:38;97.88;;;70.78;;
25511;SDS011;13414;44.534;18.700;2022-11-15T10:49:12;90.05;;;65.20;;
25511;SDS011;13414;44.534;18.700;2022-11-15T10:51:44;82.90;;;60.40;;
25511;SDS011;13414;44.534;18.700;2022-11-15T10:54:14;89.30;;;62.70;;
25511;SDS011;13414;44.534;18.700;2022-11-15T10:56:50;70.20;;;50.78;;
25511;SDS011;13414;44.534;18.700;2022-11-15T10:59:21;72.50;;;52.92;;
25511;SDS011;13414;44.534;18.700;2022-11-15T11:01:53;44.90;;;30.25;;
25511;SDS011;13414;44.534;18.700;2022-11-15T11:04:21;66.72;;;46.03;;
25511;SDS011;13414;44.534;18.700;2022-11-15T11:06:52;51.40;;;39.63;;
25511;SDS011;13414;44.534;18.700;2022-11-15T11:12:09;60.58;;;45.17;;
25511;SDS011;13414;44.534;18.700;2022-11-15T11:14:38;61.75;;;45.15;;
25511;SDS011;13414;44.534;18.700;2022-11-15T11:17:09;83.82;;;56.45;;
25511;SDS011;13414;44.534;18.700;2022-11-15T11:19:55;117.15;;;81.57;;
25511;SDS011;13414;44.534;18.700;2022-11-15T11:22:30;145.65;;;93.80;;
25511;SDS011;13414;44.534;18.700;2022-11-15T11:25:04;168.32;;;111.53;;
25511;SDS011;13414;44.534;18.700;2022-11-15T11:27:45;170.45;;;113.03;;
25511;SDS011;13414;44.534;18.700;2022-11-15T11:30:25;180.85;;;119.15;;
25511;SDS011;13414;44.534;18.700;2022-11-15T11:33:07;174.88;;;106.72;;
25511;SDS011;13414;44.534;18.700;2022-11-15T11:35:45;172.98;;;103.70;;
25511;SDS011;13414;44.534;18.700;2022-11-15T11:38:24;166.65;;;105.18;;
25511;SDS011;13414;44.534;18.700;2022-11-15T11:41:13;190.82;;;113.53;;
25511;SDS011;13414;44.534;18.700;2022-11-15T11:43:51;187.73;;;117.40;;
25511;SDS011;13414;44.534;18.700;2022-11-15T11:46:36;204.00;;;124.05;;
25511;SDS011;13414;44.534;18.700;2022-11-15T11:49:15;191.90;;;119.72;;
25511;SDS011;13414;44.534;18.700;2022-11-15T11:51:48;178.48;;;113.93;;
25511;SDS011;13414;44.534;18.700;2022-11-15T11:54:22;185.82;;;114.38;;
25511;SDS011;13414;44.534;18.700;2022-11-15T11:57:02;199.15;;;123.97;;
25511;SDS011;13414;44.534;18.700;2022-11-15T11:59:33;185.20;;;116.70;;
25511;SDS011;13414;44.534;18.700;2022-11-15T12:02:11;183.88;;;113.95;;
25511;SDS011;13414;44.534;18.700;2022-11-15T12:04:44;200.15;;;119.38;;
25511;SDS011;13414;44.534;18.700;2022-11-15T12:07:17;181.93;;;114.57;;
25511;SDS011;13414;44.534;18.700;2022-11-15T12:09:53;186.57;;;115.03;;
25511;SDS011;13414;44.534;18.700;2022-11-15T12:12:27;171.75;;;109.85;;
25511;SDS011;13414;44.534;18.700;2022-11-15T12:15:02;175.48;;;107.80;;
25511;SDS011;13414;44.534;18.700;2022-11-15T12:17:36;168.48;;;105.88;;
25511;SDS011;13414;44.534;18.700;2022-11-15T12:20:13;161.95;;;105.18;;
25511;SDS011;13414;44.534;18.700;2022-11-15T12:22:44;171.65;;;111.75;;
25511;SDS011;13414;44.534;18.700;2022-11-15T12:25:20;170.13;;;106.90;;
25511;SDS011;13414;44.534;18.700;2022-11-15T12:27:53;165.40;;;107.03;;
25511;SDS011;13414;44.534;18.700;2022-11-15T12:30:24;175.18;;;111.25;;
25511;SDS011;13414;44.534;18.700;2022-11-15T12:32:57;174.13;;;109.55;;
25511;SDS011;13414;44.534;18.700;2022-11-15T12:35:30;166.23;;;107.47;;
25511;SDS011;13414;44.534;18.700;2022-11-15T12:38:01;170.73;;;109.65;;
25511;SDS011;13414;44.534;18.700;2022-11-15T12:40:32;170.55;;;107.65;;
25511;SDS011;13414;44.534;18.700;2022-11-15T12:46:10;184.73;;;117.13;;
25511;SDS011;13414;44.534;18.700;2022-11-15T12:48:50;190.18;;;122.10;;
25511;SDS011;13414;44.534;18.700;2022-11-15T12:51:23;206.15;;;121.50;;
25511;SDS011;13414;44.534;18.700;2022-11-15T12:54:51;243.35;;;128.65;;
25511;SDS011;13414;44.534;18.700;2022-11-15T12:57:34;298.27;;;142.73;;
25511;SDS011;13414;44.534;18.700;2022-11-15T13:03:24;318.02;;;133.48;;
25511;SDS011;13414;44.534;18.700;2022-11-15T13:05:56;343.88;;;136.05;;
25511;SDS011;13414;44.534;18.700;2022-11-15T13:08:39;373.23;;;143.30;;
25511;SDS011;13414;44.534;18.700;2022-11-15T13:17:23;528.33;;;190.32;;
25511;SDS011;13414;44.534;18.700;2022-11-15T13:20:00;569.08;;;198.73;;
25511;SDS011;13414;44.534;18.700;2022-11-15T13:22:40;557.55;;;202.85;;
25511;SDS011;13414;44.534;18.700;2022-11-15T13:25:19;571.45;;;207.07;;
25511;SDS011;13414;44.534;18.700;2022-11-15T13:27:54;563.40;;;206.75;;
25511;SDS011;13414;44.534;18.700;2022-11-15T13:30:24;559.70;;;204.57;;
25511;SDS011;13414;44.534;18.700;2022-11-15T13:32:53;573.42;;;212.05;;
25511;SDS011;13414;44.534;18.700;2022-11-15T13:35:21;578.08;;;216.18;;
25511;SDS011;13414;44.534;18.700;2022-11-15T13:37:51;556.65;;;215.30;;
25511;SDS011;13414;44.534;18.700;2022-11-15T13:40:22;560.90;;;206.75;;
25511;SDS011;13414;44.534;18.700;2022-11-15T13:42:53;531.92;;;199.38;;
25511;SDS011;13414;44.534;18.700;2022-11-15T13:45:20;531.00;;;196.30;;
25511;SDS011;13414;44.534;18.700;2022-11-15T13:47:55;528.65;;;198.35;;
25511;SDS011;13414;44.534;18.700;2022-11-15T13:50:24;533.60;;;200.05;;
25511;SDS011;13414;44.534;18.700;2022-11-15T13:52:56;522.60;;;206.98;;
25511;SDS011;13414;44.534;18.700;2022-11-15T13:55:27;518.08;;;208.40;;
25511;SDS011;13414;44.534;18.700;2022-11-15T13:57:58;493.45;;;202.55;;
25511;SDS011;13414;44.534;18.700;2022-11-15T14:00:33;480.92;;;195.65;;
25511;SDS011;13414;44.534;18.700;2022-11-15T14:03:08;483.20;;;190.55;;
25511;SDS011;13414;44.534;18.700;2022-11-15T14:05:42;467.65;;;181.38;;
25511;SDS011;13414;44.534;18.700;2022-11-15T14:08:21;454.60;;;181.48;;
25511;SDS011;13414;44.534;18.700;2022-11-15T14:13:34;453.27;;;180.82;;
25511;SDS011;13414;44.534;18.700;2022-11-15T14:16:18;414.52;;;175.55;;
25511;SDS011;13414;44.534;18.700;2022-11-15T14:18:49;404.90;;;167.57;;
25511;SDS011;13414;44.534;18.700;2022-11-15T14:21:17;388.48;;;161.43;;
25511;SDS011;13414;44.534;18.700;2022-11-15T14:23:46;372.08;;;161.02;;
25511;SDS011;13414;44.534;18.700;2022-11-15T14:26:28;378.52;;;157.00;;
25511;SDS011;13414;44.534;18.700;2022-11-15T14:28:57;380.75;;;158.70;;
25511;SDS011;13414;44.534;18.700;2022-11-15T14:31:51;349.48;;;157.23;;
25511;SDS011;13414;44.534;18.700;2022-11-15T14:34:20;360.27;;;155.05;;
25511;SDS011;13414;44.534;18.700;2022-11-15T14:36:47;354.83;;;150.57;;
25511;SDS011;13414;44.534;18.700;2022-11-15T14:39:15;346.15;;;150.55;;
25511;SDS011;13414;44.534;18.700;2022-11-15T14:41:43;340.02;;;150.20;;
25511;SDS011;13414;44.534;18.700;2022-11-15T14:44:10;341.05;;;148.70;;
25511;SDS011;13414;44.534;18.700;2022-11-15T14:46:43;328.42;;;145.23;;
25511;SDS011;13414;44.534;18.700;2022-11-15T14:49:11;328.85;;;149.50;;
25511;SDS011;13414;44.534;18.700;2022-11-15T14:51:41;301.15;;;145.50;;
25511;SDS011;13414;44.534;18.700;2022-11-15T14:54:09;304.35;;;140.63;;
25511;SDS011;13414;44.534;18.700;2022-11-15T14:56:36;318.17;;;146.32;;
25511;SDS011;13414;44.534;18.700;2022-11-15T14:59:04;310.98;;;146.20;;
25511;SDS011;13414;44.534;18.700;2022-11-15T15:01:31;297.30;;;143.32;;
25511;SDS011;13414;44.534;18.700;2022-11-15T15:03:58;318.95;;;146.38;;
25511;SDS011;13414;44.534;18.700;2022-11-15T15:06:27;325.23;;;151.85;;
25511;SDS011;13414;44.534;18.700;2022-11-15T15:08:57;333.15;;;151.18;;
25511;SDS011;13414;44.534;18.700;2022-11-15T15:11:25;338.60;;;154.50;;
25511;SDS011;13414;44.534;18.700;2022-11-15T15:13:55;332.98;;;154.55;;
25511;SDS011;13414;44.534;18.700;2022-11-15T15:16:27;312.83;;;150.60;;
25511;SDS011;13414;44.534;18.700;2022-11-15T15:18:54;295.67;;;143.80;;
25511;SDS011;13414;44.534;18.700;2022-11-15T15:21:23;311.48;;;146.82;;
25511;SDS011;13414;44.534;18.700;2022-11-15T15:23:52;304.45;;;146.70;;
25511;SDS011;13414;44.534;18.700;2022-11-15T15:26:21;304.88;;;146.82;;
25511;SDS011;13414;44.534;18.700;2022-11-15T15:28:49;318.85;;;150.10;;
25511;SDS011;13414;44.534;18.700;2022-11-15T15:31:17;311.30;;;151.50;;
25511;SDS011;13414;44.534;18.700;2022-11-15T15:33:45;309.67;;;154.00;;
25511;SDS011;13414;44.534;18.700;2022-11-15T15:36:13;318.52;;;157.95;;
25511;SDS011;13414;44.534;18.700;2022-11-15T15:38:43;328.17;;;157.93;;
25511;SDS011;13414;44.534;18.700;2022-11-15T15:41:12;330.42;;;158.07;;
25511;SDS011;13414;44.534;18.700;2022-11-15T15:43:43;324.65;;;152.77;;
25511;SDS011;13414;44.534;18.700;2022-11-15T15:46:11;334.45;;;165.05;;
25511;SDS011;13414;44.534;18.700;2022-11-15T15:48:40;320.40;;;162.57;;
25511;SDS011;13414;44.534;18.700;2022-11-15T15:51:08;338.60;;;169.25;;
25511;SDS011;13414;44.534;18.700;2022-11-15T15:53:37;363.38;;;194.57;;
25511;SDS011;13414;44.534;18.700;2022-11-15T15:56:05;411.70;;;223.43;;